createdAt,value
2022-09-23T00:01:33.000Z,90
2022-09-23T00:04:24.000Z,90
2022-09-23T00:05:50.000Z,90
2022-09-23T00:07:56.000Z,89
2022-09-23T00:09:23.000Z,90
2022-09-23T00:11:29.000Z,90
2022-09-23T00:12:56.000Z,90
2022-09-23T00:15:02.000Z,90
2022-09-23T00:16:28.000Z,89
2022-09-23T00:18:35.000Z,90
2022-09-23T00:20:01.000Z,90
2022-09-23T00:22:07.000Z,89
2022-09-23T00:23:34.000Z,89
2022-09-23T00:25:40.000Z,90
2022-09-23T00:27:07.000Z,90
2022-09-23T00:29:13.000Z,90
2022-09-23T00:30:39.000Z,90
2022-09-23T00:32:46.000Z,90
2022-09-23T00:34:12.000Z,90
2022-09-23T00:36:18.000Z,90
2022-09-23T00:37:45.000Z,90
2022-09-23T00:39:51.000Z,90
2022-09-23T00:42:42.000Z,91
2022-09-23T00:44:08.000Z,90
2022-09-23T00:46:14.000Z,90
2022-09-23T00:47:41.000Z,90
2022-09-23T00:49:47.000Z,89
2022-09-23T00:51:14.000Z,89
2022-09-23T00:53:20.000Z,90
2022-09-23T00:54:46.000Z,90
2022-09-23T00:56:52.000Z,90
2022-09-23T00:58:19.000Z,91
2022-09-23T01:00:25.000Z,91
2022-09-23T01:01:51.000Z,90
2022-09-23T01:03:57.000Z,90
2022-09-23T01:05:24.000Z,90
2022-09-23T01:07:30.000Z,90
2022-09-23T01:08:56.000Z,91
2022-09-23T01:11:03.000Z,91
2022-09-23T01:12:29.000Z,90
2022-09-23T01:14:35.000Z,91
2022-09-23T01:16:02.000Z,91
2022-09-23T01:18:08.000Z,90
2022-09-23T01:20:59.000Z,91
2022-09-23T01:22:26.000Z,91
2022-09-23T01:24:32.000Z,91
2022-09-23T01:25:58.000Z,90
2022-09-23T01:28:04.000Z,90
2022-09-23T01:29:31.000Z,90
2022-09-23T01:31:37.000Z,90
2022-09-23T01:33:03.000Z,91
2022-09-23T01:35:10.000Z,91
2022-09-23T01:36:36.000Z,91
2022-09-23T01:38:42.000Z,90
2022-09-23T01:40:09.000Z,91
2022-09-23T01:42:15.000Z,91
2022-09-23T01:43:41.000Z,91
2022-09-23T01:45:48.000Z,91
2022-09-23T01:47:14.000Z,91
2022-09-23T01:49:20.000Z,91
2022-09-23T01:50:47.000Z,91
2022-09-23T01:52:53.000Z,91
2022-09-23T01:54:19.000Z,91
2022-09-23T01:56:26.000Z,91
2022-09-23T01:59:16.000Z,91
2022-09-23T02:00:43.000Z,91
2022-09-23T02:02:49.000Z,91
2022-09-23T02:04:16.000Z,91
2022-09-23T02:06:22.000Z,91
2022-09-23T02:07:48.000Z,91
2022-09-23T02:09:54.000Z,91
2022-09-23T02:11:21.000Z,90
2022-09-23T02:13:27.000Z,91
2022-09-23T02:14:54.000Z,91
2022-09-23T02:17:00.000Z,91
2022-09-23T02:18:26.000Z,91
2022-09-23T02:20:32.000Z,92
2022-09-23T02:21:59.000Z,91
2022-09-23T02:24:05.000Z,91
2022-09-23T02:25:32.000Z,91
2022-09-23T02:27:38.000Z,91
2022-09-23T02:29:04.000Z,91
2022-09-23T02:31:10.000Z,91
2022-09-23T02:32:37.000Z,91
2022-09-23T02:34:43.000Z,91
2022-09-23T02:37:34.000Z,91
2022-09-23T02:39:01.000Z,91
2022-09-23T02:41:07.000Z,92
2022-09-23T02:42:33.000Z,91
2022-09-23T02:44:39.000Z,91
2022-09-23T02:46:06.000Z,92
2022-09-23T02:48:12.000Z,91
2022-09-23T02:49:39.000Z,91
2022-09-23T02:51:45.000Z,91
2022-09-23T02:53:11.000Z,91
2022-09-23T02:55:17.000Z,91
2022-09-23T02:56:44.000Z,91
2022-09-23T02:58:50.000Z,91
2022-09-23T03:00:17.000Z,91
2022-09-23T03:02:23.000Z,91
2022-09-23T03:03:49.000Z,91
2022-09-23T03:05:55.000Z,91
2022-09-23T03:07:22.000Z,91
2022-09-23T03:09:28.000Z,91
2022-09-23T03:10:54.000Z,91
2022-09-23T03:13:01.000Z,91
2022-09-23T03:15:52.000Z,90
2022-09-23T03:17:18.000Z,91
2022-09-23T03:19:25.000Z,91
2022-09-23T03:20:51.000Z,92
2022-09-23T03:22:57.000Z,91
2022-09-23T03:24:24.000Z,91
2022-09-23T03:26:30.000Z,91
2022-09-23T03:27:56.000Z,91
2022-09-23T03:30:02.000Z,91
2022-09-23T03:31:29.000Z,91
2022-09-23T03:33:35.000Z,91
2022-09-23T03:35:02.000Z,91
2022-09-23T03:37:08.000Z,91
2022-09-23T03:38:34.000Z,91
2022-09-23T03:40:40.000Z,91
2022-09-23T03:42:07.000Z,92
2022-09-23T03:44:13.000Z,91
2022-09-23T03:45:39.000Z,91
2022-09-23T03:47:46.000Z,91
2022-09-23T03:49:12.000Z,91
2022-09-23T03:51:18.000Z,92
2022-09-23T03:54:09.000Z,92
2022-09-23T03:55:36.000Z,92
2022-09-23T03:57:42.000Z,92
2022-09-23T03:59:08.000Z,92
2022-09-23T04:01:15.000Z,91
2022-09-23T04:02:41.000Z,91
2022-09-23T04:04:47.000Z,92
2022-09-23T04:06:14.000Z,91
2022-09-23T04:08:20.000Z,91
2022-09-23T04:09:46.000Z,91
2022-09-23T04:11:52.000Z,91
2022-09-23T04:13:19.000Z,91
2022-09-23T04:15:25.000Z,92
2022-09-23T04:16:51.000Z,92
2022-09-23T04:18:58.000Z,91
2022-09-23T04:20:24.000Z,92
2022-09-23T04:22:30.000Z,92
2022-09-23T04:23:57.000Z,92
2022-09-23T04:26:03.000Z,92
2022-09-23T04:27:30.000Z,92
2022-09-23T04:29:42.000Z,92
2022-09-23T04:32:34.000Z,92
2022-09-23T04:34:00.000Z,91
2022-09-23T04:36:06.000Z,91
2022-09-23T04:37:33.000Z,91
2022-09-23T04:39:39.000Z,91
2022-09-23T04:41:05.000Z,91
2022-09-23T04:43:11.000Z,92
2022-09-23T04:44:39.000Z,92
2022-09-23T04:46:46.000Z,92
2022-09-23T04:48:12.000Z,91
2022-09-23T04:50:18.000Z,92
2022-09-23T04:51:45.000Z,92
2022-09-23T04:53:51.000Z,92
2022-09-23T04:55:17.000Z,91
2022-09-23T04:57:24.000Z,91
2022-09-23T04:58:50.000Z,92
2022-09-23T05:00:56.000Z,92
2022-09-23T05:02:29.000Z,92
2022-09-23T05:04:35.000Z,92
2022-09-23T05:06:02.000Z,91
2022-09-23T05:08:08.000Z,93
2022-09-23T05:10:59.000Z,92
2022-09-23T05:12:26.000Z,91
2022-09-23T05:14:32.000Z,91
2022-09-23T05:15:58.000Z,91
2022-09-23T05:18:05.000Z,92
2022-09-23T05:19:31.000Z,92
2022-09-23T05:21:37.000Z,92
2022-09-23T05:23:04.000Z,91
2022-09-23T05:25:10.000Z,92
2022-09-23T05:26:37.000Z,92
2022-09-23T05:28:43.000Z,92
2022-09-23T05:30:09.000Z,92
2022-09-23T05:32:16.000Z,92
2022-09-23T05:33:42.000Z,92
2022-09-23T05:35:48.000Z,92
2022-09-23T05:37:15.000Z,92
2022-09-23T05:39:21.000Z,93
2022-09-23T05:40:47.000Z,93
2022-09-23T05:44:48.000Z,92
2022-09-23T05:48:27.000Z,92
2022-09-23T05:49:01.000Z,92
2022-09-23T05:51:51.000Z,92
2022-09-23T05:53:17.000Z,93
2022-09-23T05:55:24.000Z,92
2022-09-23T05:56:50.000Z,93
2022-09-23T05:58:56.000Z,93
2022-09-23T06:00:23.000Z,94
2022-09-23T06:02:29.000Z,94
2022-09-23T06:03:55.000Z,94
2022-09-23T06:06:02.000Z,94
2022-09-23T06:07:28.000Z,94
2022-09-23T06:09:34.000Z,94
2022-09-23T06:11:03.000Z,94
2022-09-23T06:13:09.000Z,93
2022-09-23T06:14:35.000Z,93
2022-09-23T06:16:42.000Z,93
2022-09-23T06:18:08.000Z,93
2022-09-23T06:20:14.000Z,94
2022-09-23T06:21:41.000Z,95
2022-09-23T06:23:47.000Z,94
2022-09-23T06:25:14.000Z,94
2022-09-23T06:27:20.000Z,94
2022-09-23T06:30:11.000Z,93
2022-09-23T06:31:37.000Z,94
2022-09-23T06:33:44.000Z,94
2022-09-23T06:35:10.000Z,94
2022-09-23T06:37:31.000Z,94
2022-09-23T06:38:58.000Z,94
2022-09-23T06:41:04.000Z,94
2022-09-23T06:42:30.000Z,94
2022-09-23T06:44:37.000Z,94
2022-09-23T06:46:03.000Z,93
2022-09-23T06:48:09.000Z,94
2022-09-23T06:49:36.000Z,95
2022-09-23T06:51:42.000Z,95
2022-09-23T06:53:09.000Z,93
2022-09-23T06:55:15.000Z,94
2022-09-23T06:56:41.000Z,93
2022-09-23T06:58:48.000Z,91
2022-09-23T07:00:14.000Z,92
2022-09-23T07:02:20.000Z,91
2022-09-23T07:03:47.000Z,91
2022-09-23T07:05:53.000Z,91
2022-09-23T07:08:45.000Z,91
2022-09-23T07:10:11.000Z,91
2022-09-23T07:12:17.000Z,90
2022-09-23T07:13:44.000Z,91
2022-09-23T07:15:50.000Z,90
2022-09-23T07:17:17.000Z,90
2022-09-23T07:19:23.000Z,89
2022-09-23T07:20:49.000Z,89
2022-09-23T07:22:55.000Z,89
2022-09-23T07:24:22.000Z,89
2022-09-23T07:26:28.000Z,90
2022-09-23T07:27:55.000Z,89
2022-09-23T07:30:01.000Z,89
2022-09-23T07:31:27.000Z,90
2022-09-23T07:33:45.000Z,89
2022-09-23T07:35:12.000Z,90
2022-09-23T07:37:18.000Z,91
2022-09-23T07:38:44.000Z,89
2022-09-23T07:40:51.000Z,90
2022-09-23T07:42:18.000Z,89
2022-09-23T07:44:24.000Z,89
2022-09-23T07:47:15.000Z,90
2022-09-23T07:48:42.000Z,90
2022-09-23T07:50:48.000Z,90
2022-09-23T07:52:14.000Z,90
2022-09-23T07:54:20.000Z,90
2022-09-23T07:55:47.000Z,90
2022-09-23T07:57:53.000Z,92
2022-09-23T07:59:20.000Z,90
2022-09-23T08:01:26.000Z,90
2022-09-23T08:02:52.000Z,90
2022-09-23T08:04:59.000Z,90
2022-09-23T08:06:25.000Z,90
2022-09-23T08:08:31.000Z,91
2022-09-23T08:09:58.000Z,90
2022-09-23T08:12:04.000Z,91
2022-09-23T08:13:30.000Z,90
2022-09-23T08:15:37.000Z,90
2022-09-23T08:17:03.000Z,90
2022-09-23T08:19:09.000Z,91
2022-09-23T08:20:36.000Z,90
2022-09-23T08:22:42.000Z,90
2022-09-23T08:25:33.000Z,90
2022-09-23T08:27:01.000Z,90
2022-09-23T08:29:07.000Z,89
2022-09-23T08:30:33.000Z,89
2022-09-23T08:32:39.000Z,89
2022-09-23T08:34:06.000Z,90
2022-09-23T08:36:12.000Z,90
2022-09-23T08:37:39.000Z,88
2022-09-23T08:39:45.000Z,88
2022-09-23T08:41:11.000Z,89
2022-09-23T08:43:17.000Z,89
2022-09-23T08:44:44.000Z,88
2022-09-23T08:46:50.000Z,89
2022-09-23T08:48:16.000Z,88
2022-09-23T08:50:22.000Z,87
2022-09-23T08:51:49.000Z,88
2022-09-23T08:53:55.000Z,89
2022-09-23T08:55:22.000Z,88
2022-09-23T08:57:28.000Z,89
2022-09-23T08:58:54.000Z,88
2022-09-23T09:01:00.000Z,89
2022-09-23T09:03:51.000Z,87
2022-09-23T09:05:18.000Z,86
2022-09-23T09:07:24.000Z,86
2022-09-23T09:09:03.000Z,85
2022-09-23T09:11:09.000Z,87
2022-09-23T09:12:36.000Z,85
2022-09-23T09:14:42.000Z,85
2022-09-23T09:16:08.000Z,85
2022-09-23T09:18:14.000Z,86
2022-09-23T09:19:41.000Z,84
2022-09-23T09:21:47.000Z,83
2022-09-23T09:23:14.000Z,84
2022-09-23T09:25:20.000Z,84
2022-09-23T09:26:46.000Z,83
2022-09-23T09:28:52.000Z,83
2022-09-23T09:30:19.000Z,83
2022-09-23T09:32:25.000Z,82
2022-09-23T09:33:51.000Z,81
2022-09-23T09:35:57.000Z,81
2022-09-23T09:37:24.000Z,80
2022-09-23T09:39:30.000Z,79
2022-09-23T09:42:21.000Z,77
2022-09-23T09:43:48.000Z,75
2022-09-23T09:45:54.000Z,75
2022-09-23T09:47:24.000Z,73
2022-09-23T09:49:30.000Z,75
2022-09-23T09:50:57.000Z,76
2022-09-23T09:53:03.000Z,73
2022-09-23T09:54:29.000Z,75
2022-09-23T09:56:36.000Z,70
2022-09-23T09:58:02.000Z,71
2022-09-23T10:00:09.000Z,73
2022-09-23T10:01:35.000Z,71
2022-09-23T10:03:41.000Z,67
2022-09-23T10:05:08.000Z,68
2022-09-23T10:07:14.000Z,68
2022-09-23T10:08:41.000Z,68
2022-09-23T10:10:47.000Z,67
2022-09-23T10:12:13.000Z,66
2022-09-23T10:14:19.000Z,64
2022-09-23T10:15:46.000Z,63
2022-09-23T10:17:52.000Z,63
2022-09-23T10:20:43.000Z,62
2022-09-23T10:22:10.000Z,60
2022-09-23T10:24:16.000Z,60
2022-09-23T10:25:42.000Z,60
2022-09-23T10:27:48.000Z,58
2022-09-23T10:29:15.000Z,59
2022-09-23T10:31:21.000Z,59
2022-09-23T10:32:47.000Z,60
2022-09-23T10:34:53.000Z,57
2022-09-23T10:36:20.000Z,60
2022-09-23T10:38:26.000Z,60
2022-09-23T10:39:53.000Z,60
2022-09-23T10:41:59.000Z,57
2022-09-23T10:43:25.000Z,57
2022-09-23T10:45:31.000Z,56
2022-09-23T10:46:58.000Z,57
2022-09-23T10:49:04.000Z,58
2022-09-23T10:50:31.000Z,55
2022-09-23T10:52:37.000Z,56
2022-09-23T10:54:03.000Z,56
2022-09-23T10:56:09.000Z,57
2022-09-23T10:59:00.000Z,55
2022-09-23T11:00:27.000Z,57
2022-09-23T11:02:33.000Z,56
2022-09-23T11:04:00.000Z,57
2022-09-23T11:06:06.000Z,58
2022-09-23T11:07:32.000Z,57
2022-09-23T11:09:43.000Z,58
2022-09-23T11:11:09.000Z,57
2022-09-23T11:13:15.000Z,56
2022-09-23T11:14:42.000Z,53
2022-09-23T11:16:48.000Z,54
2022-09-23T11:18:15.000Z,54
2022-09-23T11:20:21.000Z,53
2022-09-23T11:21:47.000Z,53
2022-09-23T11:23:53.000Z,55
2022-09-23T11:25:20.000Z,58
2022-09-23T11:27:26.000Z,57
2022-09-23T11:28:52.000Z,56
2022-09-23T11:30:58.000Z,55
2022-09-23T11:32:25.000Z,56
2022-09-23T11:34:31.000Z,55
2022-09-23T11:37:22.000Z,56
2022-09-23T11:38:49.000Z,58
2022-09-23T11:40:55.000Z,59
2022-09-23T11:42:22.000Z,52
2022-09-23T11:44:28.000Z,54
2022-09-23T11:45:54.000Z,54
2022-09-23T11:48:00.000Z,55
2022-09-23T11:49:27.000Z,58
2022-09-23T11:51:33.000Z,56
2022-09-23T11:52:59.000Z,54
2022-09-23T11:55:05.000Z,55
2022-09-23T11:56:43.000Z,54
2022-09-23T11:58:53.000Z,55
2022-09-23T12:00:25.000Z,53
2022-09-23T12:02:31.000Z,54
2022-09-23T12:03:58.000Z,53
2022-09-23T12:06:08.000Z,54
2022-09-23T12:07:34.000Z,52
2022-09-23T12:09:40.000Z,53
2022-09-23T12:11:24.000Z,53
2022-09-23T12:13:30.000Z,56
2022-09-23T12:16:22.000Z,54
2022-09-23T12:17:48.000Z,54
2022-09-23T12:19:55.000Z,56
2022-09-23T12:21:21.000Z,55
2022-09-23T12:23:54.000Z,55
2022-09-23T12:25:21.000Z,55
2022-09-23T12:27:27.000Z,55
2022-09-23T12:28:54.000Z,55
2022-09-23T12:31:00.000Z,55
2022-09-23T12:32:26.000Z,55
2022-09-23T12:34:32.000Z,55
2022-09-23T12:35:59.000Z,53
2022-09-23T12:38:05.000Z,53
2022-09-23T12:39:32.000Z,54
2022-09-23T12:41:38.000Z,54
2022-09-23T12:43:04.000Z,53
2022-09-23T12:45:10.000Z,51
2022-09-23T12:46:37.000Z,53
2022-09-23T12:48:43.000Z,52
2022-09-23T12:50:09.000Z,52
2022-09-23T12:52:22.000Z,54
2022-09-23T12:55:13.000Z,51
2022-09-23T12:56:40.000Z,50
2022-09-23T12:58:46.000Z,52
2022-09-23T13:00:12.000Z,52
2022-09-23T13:02:19.000Z,51
2022-09-23T13:03:45.000Z,52
2022-09-23T13:05:51.000Z,53
2022-09-23T13:07:18.000Z,53
2022-09-23T13:09:24.000Z,53
2022-09-23T13:10:51.000Z,52
2022-09-23T13:12:57.000Z,52
2022-09-23T13:14:23.000Z,51
2022-09-23T13:16:33.000Z,52
2022-09-23T13:18:00.000Z,51
2022-09-23T13:20:06.000Z,53
2022-09-23T13:21:32.000Z,53
2022-09-23T13:23:38.000Z,53
2022-09-23T13:25:05.000Z,51
2022-09-23T13:27:11.000Z,52
2022-09-23T13:28:38.000Z,51
2022-09-23T13:30:44.000Z,51
2022-09-23T13:33:35.000Z,53
2022-09-23T13:35:02.000Z,53
2022-09-23T13:37:08.000Z,52
2022-09-23T13:38:34.000Z,52
2022-09-23T13:40:40.000Z,52
2022-09-23T13:42:07.000Z,54
2022-09-23T13:44:13.000Z,54
2022-09-23T13:45:39.000Z,50
2022-09-23T13:47:46.000Z,52
2022-09-23T13:49:12.000Z,53
2022-09-23T13:51:18.000Z,53
2022-09-23T13:52:45.000Z,53
2022-09-23T13:54:51.000Z,55
2022-09-23T13:56:18.000Z,52
2022-09-23T13:58:24.000Z,52
2022-09-23T13:59:50.000Z,52
2022-09-23T14:01:56.000Z,53
2022-09-23T14:03:23.000Z,52
2022-09-23T14:05:29.000Z,51
2022-09-23T14:06:56.000Z,51
2022-09-23T14:09:02.000Z,51
2022-09-23T14:11:53.000Z,50
2022-09-23T14:13:19.000Z,51
2022-09-23T14:15:31.000Z,51
2022-09-23T14:16:58.000Z,51
2022-09-23T14:19:04.000Z,50
2022-09-23T14:20:30.000Z,50
2022-09-23T14:22:37.000Z,51
2022-09-23T14:24:03.000Z,51
2022-09-23T14:26:09.000Z,50
2022-09-23T14:27:36.000Z,47
2022-09-23T14:29:42.000Z,48
2022-09-23T14:31:08.000Z,50
2022-09-23T14:33:15.000Z,49
2022-09-23T14:34:41.000Z,48
2022-09-23T14:36:47.000Z,49
2022-09-23T14:38:14.000Z,50
2022-09-23T14:40:20.000Z,50
2022-09-23T14:41:46.000Z,50
2022-09-23T14:43:53.000Z,51
2022-09-23T14:45:19.000Z,51
2022-09-23T14:47:25.000Z,50
2022-09-23T14:50:17.000Z,51
2022-09-23T14:51:43.000Z,51
2022-09-23T14:53:49.000Z,51
2022-09-23T14:55:16.000Z,50
2022-09-23T14:57:22.000Z,52
2022-09-23T14:58:48.000Z,50
2022-09-23T15:00:58.000Z,52
2022-09-23T15:02:25.000Z,53
2022-09-23T15:04:31.000Z,53
2022-09-23T15:05:58.000Z,53
2022-09-23T15:08:04.000Z,52
2022-09-23T15:09:30.000Z,52
2022-09-23T15:11:36.000Z,53
2022-09-23T15:13:03.000Z,52
2022-09-23T15:15:09.000Z,53
2022-09-23T15:16:36.000Z,52
2022-09-23T15:18:42.000Z,52
2022-09-23T15:20:08.000Z,54
2022-09-23T15:22:14.000Z,55
2022-09-23T15:23:41.000Z,54
2022-09-23T15:25:47.000Z,54
2022-09-23T15:28:38.000Z,55
2022-09-23T15:30:05.000Z,55
2022-09-23T15:32:11.000Z,56
2022-09-23T15:33:38.000Z,55
2022-09-23T15:35:44.000Z,57
2022-09-23T15:37:10.000Z,56
2022-09-23T15:39:16.000Z,56
2022-09-23T15:40:43.000Z,57
2022-09-23T15:42:49.000Z,57
2022-09-23T15:44:16.000Z,58
2022-09-23T15:46:22.000Z,59
2022-09-23T15:47:48.000Z,57
2022-09-23T15:49:54.000Z,58
2022-09-23T15:51:21.000Z,59
2022-09-23T15:53:27.000Z,59
2022-09-23T15:54:53.000Z,60
2022-09-23T15:57:00.000Z,60
2022-09-23T15:58:26.000Z,60
2022-09-23T16:00:32.000Z,61
2022-09-23T16:01:59.000Z,61
2022-09-23T16:04:05.000Z,60
2022-09-23T16:06:56.000Z,60
2022-09-23T16:08:23.000Z,60
2022-09-23T16:10:29.000Z,60
2022-09-23T16:11:55.000Z,60
2022-09-23T16:14:02.000Z,61
2022-09-23T16:15:28.000Z,61
2022-09-23T16:17:34.000Z,61
2022-09-23T16:19:01.000Z,61
2022-09-23T16:21:07.000Z,63
2022-09-23T16:22:33.000Z,62
2022-09-23T16:24:39.000Z,64
2022-09-23T16:26:06.000Z,63
2022-09-23T16:28:12.000Z,64
2022-09-23T16:29:38.000Z,66
2022-09-23T16:31:44.000Z,66
2022-09-23T16:33:11.000Z,67
2022-09-23T16:35:17.000Z,68
2022-09-23T16:36:44.000Z,69
2022-09-23T16:38:50.000Z,69
2022-09-23T16:40:16.000Z,70
2022-09-23T16:42:22.000Z,72
2022-09-23T16:45:14.000Z,72
2022-09-23T16:46:40.000Z,72
2022-09-23T16:48:46.000Z,73
2022-09-23T16:50:19.000Z,72
2022-09-23T16:52:25.000Z,73
2022-09-23T16:53:51.000Z,72
2022-09-23T16:55:57.000Z,71
2022-09-23T16:57:24.000Z,71
2022-09-23T16:59:30.000Z,72
2022-09-23T17:00:56.000Z,72
2022-09-23T17:03:03.000Z,72
2022-09-23T17:04:29.000Z,73
2022-09-23T17:06:35.000Z,73
2022-09-23T17:08:02.000Z,73
2022-09-23T17:10:08.000Z,74
2022-09-23T17:11:34.000Z,75
2022-09-23T17:13:40.000Z,74
2022-09-23T17:15:07.000Z,74
2022-09-23T17:17:13.000Z,75
2022-09-23T17:18:40.000Z,74
2022-09-23T17:20:46.000Z,75
2022-09-23T17:23:37.000Z,74
2022-09-23T17:25:04.000Z,74
2022-09-23T17:27:10.000Z,74
2022-09-23T17:28:36.000Z,75
2022-09-23T17:30:42.000Z,75
2022-09-23T17:32:09.000Z,75
2022-09-23T17:34:15.000Z,75
2022-09-23T17:35:41.000Z,76
2022-09-23T17:37:47.000Z,76
2022-09-23T17:39:14.000Z,76
2022-09-23T17:41:20.000Z,76
2022-09-23T17:42:46.000Z,77
2022-09-23T17:44:53.000Z,76
2022-09-23T17:46:19.000Z,76
2022-09-23T17:48:25.000Z,76
2022-09-23T17:49:52.000Z,76
2022-09-23T17:51:58.000Z,76
2022-09-23T17:53:24.000Z,77
2022-09-23T17:55:31.000Z,77
2022-09-23T17:56:57.000Z,77
2022-09-23T17:59:03.000Z,77
2022-09-23T18:01:54.000Z,78
2022-09-23T18:03:21.000Z,78
2022-09-23T18:05:27.000Z,79
2022-09-23T18:06:54.000Z,79
2022-09-23T18:09:00.000Z,79
2022-09-23T18:10:26.000Z,80
2022-09-23T18:12:33.000Z,80
2022-09-23T18:13:59.000Z,80
2022-09-23T18:16:05.000Z,80
2022-09-23T18:17:32.000Z,80
2022-09-23T18:19:38.000Z,80
2022-09-23T18:21:04.000Z,81
2022-09-23T18:23:10.000Z,80
2022-09-23T18:24:37.000Z,80
2022-09-23T18:26:43.000Z,80
2022-09-23T18:28:10.000Z,80
2022-09-23T18:30:16.000Z,81
2022-09-23T18:31:42.000Z,81
2022-09-23T18:33:48.000Z,82
2022-09-23T18:35:15.000Z,82
2022-09-23T18:37:21.000Z,82
2022-09-23T18:40:12.000Z,82
2022-09-23T18:41:41.000Z,83
2022-09-23T18:43:47.000Z,82
2022-09-23T18:45:14.000Z,82
2022-09-23T18:47:20.000Z,82
2022-09-23T18:48:47.000Z,81
2022-09-23T18:50:53.000Z,81
2022-09-23T18:52:20.000Z,81
2022-09-23T18:54:26.000Z,81
2022-09-23T18:55:52.000Z,81
2022-09-23T18:57:58.000Z,81
2022-09-23T18:59:25.000Z,82
2022-09-23T19:01:31.000Z,81
2022-09-23T19:02:58.000Z,82
2022-09-23T19:05:04.000Z,82
2022-09-23T19:06:30.000Z,82
2022-09-23T19:08:36.000Z,82
2022-09-23T19:10:03.000Z,82
2022-09-23T19:12:09.000Z,83
2022-09-23T19:13:35.000Z,82
2022-09-23T19:15:42.000Z,83
2022-09-23T19:18:33.000Z,83
2022-09-23T19:19:59.000Z,83
2022-09-23T19:22:05.000Z,83
2022-09-23T19:23:32.000Z,83
2022-09-23T19:25:38.000Z,83
2022-09-23T19:27:05.000Z,83
2022-09-23T19:29:11.000Z,83
2022-09-23T19:30:37.000Z,83
2022-09-23T19:32:43.000Z,84
2022-09-23T19:34:10.000Z,83
2022-09-23T19:36:16.000Z,84
2022-09-23T19:37:43.000Z,83
2022-09-23T19:39:49.000Z,84
2022-09-23T19:41:15.000Z,84
2022-09-23T19:43:22.000Z,84
2022-09-23T19:44:48.000Z,85
2022-09-23T19:46:54.000Z,85
2022-09-23T19:48:23.000Z,85
2022-09-23T19:50:29.000Z,85
2022-09-23T19:51:56.000Z,84
2022-09-23T19:54:02.000Z,85
2022-09-23T19:56:53.000Z,85
2022-09-23T19:58:20.000Z,84
2022-09-23T20:00:26.000Z,84
2022-09-23T20:01:53.000Z,85
2022-09-23T20:03:59.000Z,85
2022-09-23T20:05:26.000Z,86
2022-09-23T20:07:32.000Z,85
2022-09-23T20:08:58.000Z,85
2022-09-23T20:11:04.000Z,85
2022-09-23T20:12:31.000Z,86
2022-09-23T20:14:37.000Z,86
2022-09-23T20:16:04.000Z,85
2022-09-23T20:18:10.000Z,85
2022-09-23T20:19:36.000Z,85
2022-09-23T20:21:42.000Z,86
2022-09-23T20:23:09.000Z,86
2022-09-23T20:25:15.000Z,86
2022-09-23T20:26:41.000Z,86
2022-09-23T20:28:47.000Z,87
2022-09-23T20:30:14.000Z,87
2022-09-23T20:32:20.000Z,87
2022-09-23T20:35:11.000Z,85
2022-09-23T20:36:38.000Z,86
2022-09-23T20:38:44.000Z,86
2022-09-23T20:40:10.000Z,86
2022-09-23T20:42:17.000Z,87
2022-09-23T20:43:43.000Z,87
2022-09-23T20:45:49.000Z,86
2022-09-23T20:47:16.000Z,87
2022-09-23T20:49:22.000Z,87
2022-09-23T20:50:48.000Z,87
2022-09-23T20:52:55.000Z,87
2022-09-23T20:54:21.000Z,87
2022-09-23T20:56:27.000Z,87
2022-09-23T20:57:54.000Z,87
2022-09-23T21:00:00.000Z,88
2022-09-23T21:01:26.000Z,87
2022-09-23T21:03:32.000Z,88
2022-09-23T21:04:59.000Z,88
2022-09-23T21:07:05.000Z,88
2022-09-23T21:08:32.000Z,88
2022-09-23T21:10:38.000Z,88
2022-09-23T21:13:29.000Z,88
2022-09-23T21:14:56.000Z,88
2022-09-23T21:17:02.000Z,88
2022-09-23T21:18:28.000Z,88
2022-09-23T21:20:34.000Z,88
2022-09-23T21:22:01.000Z,88
2022-09-23T21:24:07.000Z,88
2022-09-23T21:26:19.000Z,88
2022-09-23T21:28:25.000Z,88
2022-09-23T21:29:52.000Z,89
2022-09-23T21:31:58.000Z,88
2022-09-23T21:33:24.000Z,88
2022-09-23T21:35:31.000Z,88
2022-09-23T21:36:57.000Z,88
2022-09-23T21:39:03.000Z,88
2022-09-23T21:40:30.000Z,88
2022-09-23T21:42:36.000Z,88
2022-09-23T21:44:03.000Z,88
2022-09-23T21:46:09.000Z,88
2022-09-23T21:47:36.000Z,89
2022-09-23T21:49:42.000Z,88
2022-09-23T21:52:39.000Z,88
2022-09-23T21:54:05.000Z,88
2022-09-23T21:56:12.000Z,88
2022-09-23T21:57:43.000Z,89
2022-09-23T21:59:49.000Z,89
2022-09-23T22:01:15.000Z,89
2022-09-23T22:03:22.000Z,88
2022-09-23T22:04:48.000Z,88
2022-09-23T22:06:54.000Z,88
2022-09-23T22:08:21.000Z,89
2022-09-23T22:10:27.000Z,89
2022-09-23T22:11:53.000Z,89
2022-09-23T22:13:59.000Z,89
2022-09-23T22:15:26.000Z,89
2022-09-23T22:17:32.000Z,89
2022-09-23T22:18:58.000Z,89
2022-09-23T22:21:05.000Z,89
2022-09-23T22:22:31.000Z,89
2022-09-23T22:24:37.000Z,89
2022-09-23T22:26:04.000Z,89
2022-09-23T22:28:10.000Z,89
2022-09-23T22:31:01.000Z,90
2022-09-23T22:32:27.000Z,90
2022-09-23T22:34:34.000Z,90
2022-09-23T22:36:15.000Z,89
2022-09-23T22:38:21.000Z,89
2022-09-23T22:39:48.000Z,89
2022-09-23T22:41:54.000Z,89
2022-09-23T22:43:20.000Z,88
2022-09-23T22:45:26.000Z,88
2022-09-23T22:46:53.000Z,88
2022-09-23T22:48:59.000Z,88
2022-09-23T22:50:26.000Z,90
2022-09-23T22:52:32.000Z,88
2022-09-23T22:53:58.000Z,88
2022-09-23T22:56:04.000Z,89
2022-09-23T22:57:31.000Z,90
2022-09-23T22:59:37.000Z,89
2022-09-23T23:01:04.000Z,88
2022-09-23T23:03:10.000Z,89
2022-09-23T23:04:36.000Z,89
2022-09-23T23:06:42.000Z,89
2022-09-23T23:09:33.000Z,90
2022-09-23T23:11:00.000Z,89
2022-09-23T23:13:06.000Z,89
2022-09-23T23:14:33.000Z,89
2022-09-23T23:16:39.000Z,90
2022-09-23T23:18:05.000Z,89
2022-09-23T23:20:12.000Z,90
2022-09-23T23:21:38.000Z,90
2022-09-23T23:23:44.000Z,90
2022-09-23T23:25:11.000Z,89
2022-09-23T23:27:17.000Z,89
2022-09-23T23:28:43.000Z,90
2022-09-23T23:30:49.000Z,90
2022-09-23T23:32:16.000Z,90
2022-09-23T23:34:22.000Z,91
2022-09-23T23:35:48.000Z,90
2022-09-23T23:37:55.000Z,90
2022-09-23T23:39:21.000Z,90
2022-09-23T23:41:27.000Z,90
2022-09-23T23:42:54.000Z,91
2022-09-23T23:45:00.000Z,91
2022-09-23T23:47:51.000Z,90
2022-09-23T23:49:18.000Z,91
2022-09-23T23:51:24.000Z,91
2022-09-23T23:52:50.000Z,90
2022-09-23T23:54:56.000Z,91
2022-09-23T23:56:23.000Z,91
2022-09-23T23:58:29.000Z,91
2022-09-23T23:59:56.000Z,90
